Terminal Aerodrome Forecast
Issued by NWS

Home | Current Version | Previous Version | Text Only | Print | Product List | Glossary On
Versions: 1 2 3 4 5 6 7 8 9 10 11 12 13 14 15 16 17 18 19 20 21
000
FTUS42 KFFC 312100 AAA
TAFFTY
TAF AMD
KFTY 312138Z 3122/0118 30008G16KT P6SM FEW040 BKN070
     FM010000 31012G22KT P6SM VCSH BKN025
     FM011000 33016G28KT P6SM BKN025
     FM011600 32018G35KT P6SM BKN040=

USA.gov is the U.S. government's official web portal to all federal, state and local government web resources and services.